createdAt,value
2023-04-22T00:00:56.527Z,5.07
2023-04-22T00:03:27.906Z,4.90
2023-04-22T00:05:56.237Z,4.93
2023-04-22T00:08:25.610Z,4.85
2023-04-22T00:10:53.860Z,4.97
2023-04-22T00:13:22.069Z,4.62
2023-04-22T00:15:51.273Z,4.97
2023-04-22T00:18:19.730Z,5.37
2023-04-22T00:20:49.157Z,4.87
2023-04-22T00:23:17.531Z,4.80
2023-04-22T00:25:45.636Z,5.10
2023-04-22T00:28:13.693Z,4.62
2023-04-22T00:30:42.040Z,5.30
2023-04-22T00:33:10.475Z,4.65
2023-04-22T00:35:38.602Z,4.93
2023-04-22T00:38:08.412Z,4.87
2023-04-22T00:40:36.505Z,4.80
2023-04-22T00:43:04.771Z,4.90
2023-04-22T00:45:33.163Z,5.53
2023-04-22T00:48:01.930Z,5.35
2023-04-22T00:50:30.671Z,5.32
2023-04-22T00:52:59.043Z,5.47
2023-04-22T00:55:29.166Z,6.22
2023-04-22T00:57:59.610Z,6.55
2023-04-22T01:00:29.678Z,6.43
2023-04-22T01:02:58.722Z,6.15
2023-04-22T01:05:28.577Z,5.93
2023-04-22T01:07:57.265Z,5.78
2023-04-22T01:10:25.804Z,5.37
2023-04-22T01:12:55.186Z,6.12
2023-04-22T01:15:23.490Z,6.18
2023-04-22T01:17:53.254Z,6.43
2023-04-22T01:20:22.323Z,5.50
2023-04-22T01:22:54.811Z,6.15
2023-04-22T01:25:25.953Z,6.85
2023-04-22T01:27:54.835Z,6.25
2023-04-22T01:30:23.229Z,5.60
2023-04-22T01:32:51.554Z,6.07
2023-04-22T01:35:22.041Z,6.68
2023-04-22T01:37:50.134Z,5.43
2023-04-22T01:40:22.638Z,5.80
2023-04-22T01:42:52.542Z,6.78
2023-04-22T01:45:20.847Z,6.28
2023-04-22T01:47:48.873Z,6.53
2023-04-22T01:50:17.399Z,6.18
2023-04-22T01:52:46.862Z,7.05
2023-04-22T01:55:15.570Z,6.65
2023-04-22T01:57:44.665Z,6.28
2023-04-22T02:00:15.185Z,6.87
2023-04-22T02:02:44.651Z,6.32
2023-04-22T02:05:13.375Z,6.45
2023-04-22T02:07:41.726Z,6.50
2023-04-22T02:10:11.599Z,6.50
2023-04-22T02:12:39.760Z,6.20
2023-04-22T02:15:08.791Z,7.28
2023-04-22T02:17:38.545Z,6.18
2023-04-22T02:20:07.768Z,6.47
2023-04-22T02:22:36.030Z,6.78
2023-04-22T02:25:04.953Z,6.95
2023-04-22T02:27:33.094Z,6.72
2023-04-22T02:30:01.265Z,6.75
2023-04-22T02:32:30.077Z,6.78
2023-04-22T02:34:59.613Z,6.80
2023-04-22T02:37:27.907Z,7.40
2023-04-22T02:39:56.304Z,7.87
2023-04-22T02:42:24.599Z,6.87
2023-04-22T02:44:52.868Z,7.53
2023-04-22T02:47:21.527Z,7.70
2023-04-22T02:49:49.755Z,8.00
2023-04-22T02:52:19.149Z,7.68
2023-04-22T02:54:47.515Z,6.57
2023-04-22T02:57:15.639Z,7.35
2023-04-22T02:59:43.708Z,7.07
2023-04-22T03:02:14.144Z,7.50
2023-04-22T03:04:42.478Z,7.68
2023-04-22T03:07:10.942Z,7.25
2023-04-22T03:09:41.330Z,7.03
2023-04-22T03:12:09.987Z,6.97
2023-04-22T03:14:38.543Z,7.22
2023-04-22T03:17:07.128Z,7.28
2023-04-22T03:19:35.406Z,7.82
2023-04-22T03:22:03.552Z,6.87
2023-04-22T03:24:32.339Z,6.93
2023-04-22T03:27:05.487Z,7.82
2023-04-22T03:29:33.835Z,7.15
2023-04-22T03:32:02.066Z,7.60
2023-04-22T03:34:30.501Z,7.50
2023-04-22T03:36:58.849Z,7.12
2023-04-22T03:39:27.064Z,8.13
2023-04-22T03:41:55.509Z,7.40
2023-04-22T03:44:25.425Z,7.45
2023-04-22T03:46:53.828Z,7.30
2023-04-22T03:49:22.918Z,7.55
2023-04-22T03:51:51.412Z,8.50
2023-04-22T03:54:21.328Z,7.55
2023-04-22T03:56:49.614Z,7.20
2023-04-22T03:59:19.444Z,7.00
2023-04-22T04:01:49.093Z,6.72
2023-04-22T04:04:19.343Z,7.12
2023-04-22T04:06:47.979Z,7.50
2023-04-22T04:09:16.189Z,6.55
2023-04-22T04:11:44.586Z,7.35
2023-04-22T04:14:13.316Z,7.30
2023-04-22T04:16:41.751Z,7.43
2023-04-22T04:19:12.121Z,7.18
2023-04-22T04:21:40.190Z,7.75
2023-04-22T04:24:08.485Z,8.25
2023-04-22T04:26:37.815Z,7.62
2023-04-22T04:29:08.417Z,6.97
2023-04-22T04:31:37.988Z,8.48
2023-04-22T04:34:07.370Z,7.47
2023-04-22T04:36:39.937Z,7.30
2023-04-22T04:39:09.663Z,7.62
2023-04-22T04:41:38.704Z,7.60
2023-04-22T04:44:07.194Z,7.65
2023-04-22T04:46:37.692Z,7.10
2023-04-22T04:49:06.216Z,6.80
2023-04-22T04:51:41.940Z,7.30
2023-04-22T04:54:10.323Z,7.15
2023-04-22T04:56:39.054Z,7.37
2023-04-22T04:59:08.664Z,7.10
2023-04-22T05:01:38.123Z,7.12
2023-04-22T05:04:07.417Z,7.28
2023-04-22T05:06:36.080Z,7.50
2023-04-22T05:09:07.927Z,7.45
2023-04-22T05:11:36.446Z,7.95
2023-04-22T05:14:06.411Z,6.97
2023-04-22T05:16:34.839Z,8.02
2023-04-22T05:19:03.159Z,7.50
2023-04-22T05:21:31.411Z,7.37
2023-04-22T05:23:59.681Z,7.00
2023-04-22T05:26:29.095Z,6.68
2023-04-22T05:28:57.615Z,6.90
2023-04-22T05:31:25.782Z,7.45
2023-04-22T05:33:53.826Z,7.20
2023-04-22T05:36:22.658Z,7.40
2023-04-22T05:38:50.847Z,7.32
2023-04-22T05:41:18.903Z,7.35
2023-04-22T05:43:48.615Z,8.00
2023-04-22T05:46:17.132Z,8.02
2023-04-22T05:48:45.547Z,8.07
2023-04-22T05:51:16.750Z,7.50
2023-04-22T05:53:44.805Z,6.72
2023-04-22T05:56:12.839Z,7.75
2023-04-22T05:58:41.158Z,7.18
2023-04-22T06:01:11.261Z,7.90
2023-04-22T06:03:40.680Z,8.27
2023-04-22T06:06:09.665Z,7.75
2023-04-22T06:08:37.673Z,7.85
2023-04-22T06:11:06.541Z,7.35
2023-04-22T06:13:34.939Z,7.00
2023-04-22T06:16:05.056Z,7.45
2023-04-22T06:18:37.920Z,6.60
2023-04-22T06:21:06.870Z,8.45
2023-04-22T06:23:38.144Z,8.23
2023-04-22T06:26:06.217Z,8.20
2023-04-22T06:28:34.646Z,7.50
2023-04-22T06:31:03.546Z,7.90
2023-04-22T06:33:31.616Z,6.80
2023-04-22T06:36:01.515Z,7.75
2023-04-22T06:38:30.318Z,6.60
2023-04-22T06:41:01.281Z,8.15
2023-04-22T06:43:29.652Z,7.55
2023-04-22T06:45:58.650Z,7.12
2023-04-22T06:48:28.379Z,7.43
2023-04-22T06:51:02.057Z,6.78
2023-04-22T06:53:30.416Z,6.78
2023-04-22T06:55:58.643Z,6.80
2023-04-22T06:58:26.674Z,7.43
2023-04-22T07:00:54.696Z,7.03
2023-04-22T07:03:23.306Z,6.35
2023-04-22T07:05:55.731Z,6.35
2023-04-22T07:08:26.798Z,6.15
2023-04-22T07:10:54.999Z,6.28
2023-04-22T07:13:24.479Z,5.85
2023-04-22T07:15:52.755Z,6.47
2023-04-22T07:18:20.736Z,4.95
2023-04-22T07:20:49.231Z,5.80
2023-04-22T07:23:17.410Z,5.90
2023-04-22T07:25:47.231Z,5.80
2023-04-22T07:28:15.501Z,5.82
2023-04-22T07:30:43.467Z,5.00
2023-04-22T07:33:11.434Z,5.62
2023-04-22T07:35:39.691Z,5.80
2023-04-22T07:38:08.833Z,4.85
2023-04-22T07:40:37.693Z,4.85
2023-04-22T07:43:07.301Z,5.05
2023-04-22T07:45:35.549Z,4.68
2023-04-22T07:48:03.969Z,4.90
2023-04-22T07:50:32.403Z,5.18
2023-04-22T07:53:00.797Z,5.10
2023-04-22T07:55:28.958Z,4.82
2023-04-22T07:57:57.232Z,4.30
2023-04-22T08:00:26.554Z,4.28
2023-04-22T08:02:54.852Z,5.15
2023-04-22T08:05:23.034Z,4.40
2023-04-22T08:07:51.061Z,4.37
2023-04-22T08:10:19.314Z,4.40
2023-04-22T08:12:47.402Z,5.47
2023-04-22T08:15:15.444Z,3.42
2023-04-22T08:17:45.176Z,4.05
2023-04-22T08:20:15.411Z,4.03
2023-04-22T08:22:44.446Z,3.85
2023-04-22T08:25:12.633Z,3.40
2023-04-22T08:27:40.929Z,3.65
2023-04-22T08:30:10.358Z,3.10
2023-04-22T08:32:38.446Z,3.60
2023-04-22T08:35:08.637Z,3.70
2023-04-22T08:37:36.921Z,3.78
2023-04-22T08:40:06.043Z,3.40
2023-04-22T08:42:34.398Z,3.95
2023-04-22T08:45:03.939Z,3.78
2023-04-22T08:47:32.830Z,3.15
2023-04-22T08:50:04.246Z,3.47
2023-04-22T08:52:34.073Z,3.92
2023-04-22T08:55:02.417Z,3.05
2023-04-22T08:57:33.074Z,3.58
2023-04-22T09:00:01.685Z,3.47
2023-04-22T09:02:32.931Z,3.28
2023-04-22T09:05:03.269Z,3.33
2023-04-22T09:07:36.353Z,3.20
2023-04-22T09:10:05.570Z,3.10
2023-04-22T09:12:33.534Z,2.80
2023-04-22T09:15:01.572Z,3.12
2023-04-22T09:17:34.134Z,3.60
2023-04-22T09:20:03.325Z,2.50
2023-04-22T09:22:41.139Z,2.70
2023-04-22T09:25:17.248Z,2.80
2023-04-22T09:27:50.335Z,2.90
2023-04-22T09:30:20.129Z,3.30
2023-04-22T09:32:55.635Z,3.55
2023-04-22T09:35:34.423Z,2.72
2023-04-22T09:38:06.285Z,2.78
2023-04-22T09:40:34.853Z,2.35
2023-04-22T09:43:06.120Z,2.60
2023-04-22T09:45:36.223Z,3.03
2023-04-22T09:48:08.474Z,2.53
2023-04-22T09:50:37.534Z,2.70
2023-04-22T09:53:08.975Z,2.92
2023-04-22T09:55:39.406Z,2.92
2023-04-22T09:58:10.097Z,2.97
2023-04-22T10:00:42.449Z,2.67
2023-04-22T10:03:11.172Z,2.33
2023-04-22T10:05:41.230Z,2.80
2023-04-22T10:08:11.937Z,2.33
2023-04-22T10:10:40.957Z,2.87
2023-04-22T10:13:09.639Z,2.90
2023-04-22T10:15:40.690Z,2.70
2023-04-22T10:18:13.016Z,2.62
2023-04-22T10:20:43.241Z,2.45
2023-04-22T10:23:24.578Z,2.35
2023-04-22T10:25:55.460Z,2.67
2023-04-22T10:28:25.250Z,2.40
2023-04-22T10:30:53.259Z,2.35
2023-04-22T10:33:40.143Z,2.40
2023-04-22T10:36:10.950Z,2.42
2023-04-22T10:38:41.877Z,2.30
2023-04-22T10:41:15.362Z,2.12
2023-04-22T10:43:45.279Z,2.00
2023-04-22T10:46:52.270Z,2.10
2023-04-22T10:49:21.559Z,2.67
2023-04-22T10:51:51.466Z,2.28
2023-04-22T10:55:00.032Z,2.08
2023-04-22T10:57:40.387Z,2.40
2023-04-22T11:00:45.770Z,2.60
2023-04-22T11:03:26.918Z,1.92
2023-04-22T11:06:16.967Z,2.20
2023-04-22T11:08:46.576Z,2.53
2023-04-22T11:11:18.602Z,2.30
2023-04-22T11:13:50.425Z,2.20
2023-04-22T11:16:22.587Z,2.00
2023-04-22T11:18:51.459Z,1.98
2023-04-22T11:21:21.579Z,2.20
2023-04-22T11:23:52.722Z,2.10
2023-04-22T11:26:34.747Z,2.42
2023-04-22T11:29:02.823Z,2.10
2023-04-22T11:31:31.240Z,2.33
2023-04-22T11:34:00.331Z,2.72
2023-04-22T11:36:28.840Z,2.42
2023-04-22T11:38:57.336Z,2.45
2023-04-22T11:41:30.035Z,2.50
2023-04-22T11:43:58.397Z,2.25
2023-04-22T11:46:31.496Z,2.50
2023-04-22T11:49:13.475Z,2.67
2023-04-22T11:51:53.766Z,2.55
2023-04-22T11:54:32.049Z,2.80
2023-04-22T11:57:03.751Z,3.03
2023-04-22T11:59:32.182Z,2.15
2023-04-22T12:02:00.342Z,2.10
2023-04-22T12:04:28.758Z,2.60
2023-04-22T12:06:56.967Z,2.30
2023-04-22T12:09:26.538Z,2.28
2023-04-22T12:11:54.822Z,2.50
2023-04-22T12:14:30.865Z,2.55
2023-04-22T12:16:59.146Z,1.75
2023-04-22T12:19:27.621Z,2.12
2023-04-22T12:21:57.000Z,2.00
2023-04-22T12:24:29.422Z,1.90
2023-04-22T12:26:58.661Z,2.30
2023-04-22T12:29:33.684Z,2.42
2023-04-22T12:32:02.570Z,2.58
2023-04-22T12:34:31.280Z,2.40
2023-04-22T12:37:00.074Z,2.20
2023-04-22T12:39:28.179Z,2.12
2023-04-22T12:41:57.788Z,2.00
2023-04-22T12:44:25.815Z,2.33
2023-04-22T12:46:55.361Z,2.20
2023-04-22T12:49:23.653Z,2.00
2023-04-22T12:51:52.301Z,2.42
2023-04-22T12:54:21.012Z,2.83
2023-04-22T12:56:49.472Z,2.30
2023-04-22T12:59:17.535Z,2.33
2023-04-22T13:01:45.680Z,2.70
2023-04-22T13:04:15.473Z,2.12
2023-04-22T13:06:44.383Z,2.75
2023-04-22T13:09:12.914Z,2.25
2023-04-22T13:11:41.353Z,2.22
2023-04-22T13:14:09.405Z,2.70
2023-04-22T13:16:37.904Z,1.52
2023-04-22T13:19:06.237Z,1.80
2023-04-22T13:21:35.926Z,1.70
2023-04-22T13:24:04.229Z,2.15
2023-04-22T13:26:32.537Z,2.12
2023-04-22T13:29:02.600Z,1.65
2023-04-22T13:31:30.849Z,2.15
2023-04-22T13:33:59.136Z,1.85
2023-04-22T13:36:27.846Z,1.73
2023-04-22T13:38:58.394Z,1.80
2023-04-22T13:41:26.748Z,1.73
2023-04-22T13:43:56.053Z,1.70
2023-04-22T13:46:25.043Z,1.83
2023-04-22T13:48:54.069Z,1.73
2023-04-22T13:51:22.509Z,1.95
2023-04-22T13:53:50.564Z,1.70
2023-04-22T13:56:20.409Z,1.60
2023-04-22T13:58:48.910Z,1.73
2023-04-22T14:01:16.934Z,1.83
2023-04-22T14:03:46.188Z,1.90
2023-04-22T14:06:14.259Z,1.90
2023-04-22T14:08:42.442Z,1.92
2023-04-22T14:11:10.964Z,2.03
2023-04-22T14:13:40.670Z,1.50
2023-04-22T14:16:10.016Z,2.10
2023-04-22T14:18:39.462Z,1.70
2023-04-22T14:21:09.399Z,1.80
2023-04-22T14:23:37.575Z,1.90
2023-04-22T14:26:06.653Z,1.37
2023-04-22T14:28:35.584Z,1.40
2023-04-22T14:31:05.960Z,1.62
2023-04-22T14:33:35.378Z,1.75
2023-04-22T14:36:03.637Z,1.52
2023-04-22T14:38:31.675Z,1.00
2023-04-22T14:40:59.995Z,1.30
2023-04-22T14:43:28.300Z,1.60
2023-04-22T14:45:56.353Z,1.55
2023-04-22T14:48:30.087Z,1.50
2023-04-22T14:50:58.308Z,1.12
2023-04-22T14:53:27.409Z,1.45
2023-04-22T14:55:59.195Z,1.37
2023-04-22T14:58:32.216Z,1.40
2023-04-22T15:01:01.142Z,1.50
2023-04-22T15:03:38.705Z,1.52
2023-04-22T15:06:07.914Z,1.45
2023-04-22T15:08:36.425Z,1.45
2023-04-22T15:11:04.480Z,1.52
2023-04-22T15:13:32.422Z,1.25
2023-04-22T15:16:00.726Z,1.40
2023-04-22T15:18:29.551Z,1.50
2023-04-22T15:20:58.926Z,1.50
2023-04-22T15:23:27.246Z,1.30
2023-04-22T15:25:55.303Z,1.10
2023-04-22T15:28:24.407Z,1.25
2023-04-22T15:30:52.837Z,1.70
2023-04-22T15:33:21.209Z,1.50
2023-04-22T15:35:50.292Z,1.60
2023-04-22T15:38:20.084Z,1.10
2023-04-22T15:40:48.203Z,1.27
2023-04-22T15:43:16.097Z,1.30
2023-04-22T15:45:50.159Z,1.27
2023-04-22T15:48:18.311Z,1.40
2023-04-22T15:50:46.668Z,1.37
2023-04-22T15:53:14.620Z,1.50
2023-04-22T15:55:44.017Z,1.40
2023-04-22T15:58:12.360Z,1.45
2023-04-22T16:00:41.077Z,1.30
2023-04-22T16:03:10.492Z,1.62
2023-04-22T16:05:38.597Z,1.77
2023-04-22T16:08:06.757Z,1.55
2023-04-22T16:10:35.163Z,1.60
2023-04-22T16:13:04.409Z,1.37
2023-04-22T16:15:32.545Z,1.52
2023-04-22T16:18:01.267Z,1.55
2023-04-22T16:20:29.625Z,1.35
2023-04-22T16:22:57.745Z,1.20
2023-04-22T16:25:25.993Z,1.70
2023-04-22T16:27:54.096Z,1.37
2023-04-22T16:30:23.717Z,1.52
2023-04-22T16:32:52.323Z,1.65
2023-04-22T16:35:20.587Z,2.15
2023-04-22T16:37:48.660Z,1.90
2023-04-22T16:40:17.046Z,1.65
2023-04-22T16:42:45.333Z,1.52
2023-04-22T16:45:13.480Z,1.77
2023-04-22T16:47:43.118Z,1.75
2023-04-22T16:50:12.471Z,1.98
2023-04-22T16:52:40.539Z,1.77
2023-04-22T16:55:09.538Z,1.87
2023-04-22T16:57:37.490Z,1.70
2023-04-22T17:00:06.872Z,1.70
2023-04-22T17:02:36.063Z,2.20
2023-04-22T17:05:06.228Z,2.28
2023-04-22T17:07:34.383Z,2.25
2023-04-22T17:10:02.472Z,1.65
2023-04-22T17:12:31.045Z,2.22
2023-04-22T17:14:59.266Z,2.25
2023-04-22T17:17:27.308Z,1.87
2023-04-22T17:19:55.409Z,2.40
2023-04-22T17:22:25.521Z,1.95
2023-04-22T17:24:53.602Z,2.05
2023-04-22T17:27:21.579Z,1.83
2023-04-22T17:29:49.951Z,2.22
2023-04-22T17:32:18.268Z,2.40
2023-04-22T17:34:46.501Z,2.17
2023-04-22T17:37:14.960Z,2.10
2023-04-22T17:39:44.292Z,2.42
2023-04-22T17:42:12.617Z,2.35
2023-04-22T17:44:41.146Z,2.58
2023-04-22T17:47:09.468Z,2.05
2023-04-22T17:49:37.776Z,2.67
2023-04-22T17:52:06.457Z,2.58
2023-04-22T17:54:34.514Z,2.75
2023-04-22T17:57:04.543Z,2.80
2023-04-22T17:59:33.009Z,2.85
2023-04-22T18:02:01.668Z,2.80
2023-04-22T18:04:32.895Z,2.47
2023-04-22T18:07:00.911Z,2.42
2023-04-22T18:09:28.986Z,2.60
2023-04-22T18:11:58.873Z,2.58
2023-04-22T18:14:28.630Z,2.70
2023-04-22T18:16:56.849Z,2.37
2023-04-22T18:19:26.076Z,2.87
2023-04-22T18:22:00.102Z,2.37
2023-04-22T18:24:28.951Z,2.67
2023-04-22T18:26:57.016Z,2.58
2023-04-22T18:29:25.182Z,2.83
2023-04-22T18:31:55.040Z,2.58
2023-04-22T18:34:24.010Z,3.00
2023-04-22T18:36:52.379Z,2.78
2023-04-22T18:39:21.195Z,2.95
2023-04-22T18:41:49.204Z,2.45
2023-04-22T18:44:17.178Z,2.78
2023-04-22T18:46:45.496Z,3.03
2023-04-22T18:49:14.891Z,2.70
2023-04-22T18:51:42.960Z,2.97
2023-04-22T18:54:11.393Z,2.65
2023-04-22T18:56:39.482Z,2.90
2023-04-22T18:59:07.622Z,3.28
2023-04-22T19:01:36.699Z,2.95
2023-04-22T19:04:04.941Z,3.33
2023-04-22T19:06:35.353Z,3.33
2023-04-22T19:09:04.725Z,3.37
2023-04-22T19:11:32.810Z,3.08
2023-04-22T19:14:02.870Z,3.50
2023-04-22T19:16:31.563Z,2.58
2023-04-22T19:18:59.468Z,3.17
2023-04-22T19:21:27.659Z,3.65
2023-04-22T19:23:57.494Z,3.17
2023-04-22T19:26:26.514Z,3.40
2023-04-22T19:28:54.595Z,3.90
2023-04-22T19:31:23.284Z,3.55
2023-04-22T19:33:51.450Z,3.37
2023-04-22T19:36:19.555Z,3.05
2023-04-22T19:38:47.817Z,3.10
2023-04-22T19:41:17.303Z,3.60
2023-04-22T19:43:46.072Z,3.60
2023-04-22T19:46:14.449Z,4.18
2023-04-22T19:48:42.902Z,3.87
2023-04-22T19:51:11.560Z,4.35
2023-04-22T19:53:41.065Z,4.00
2023-04-22T19:56:09.668Z,4.43
2023-04-22T19:58:39.678Z,3.65
2023-04-22T20:01:08.984Z,4.28
2023-04-22T20:03:38.293Z,4.10
2023-04-22T20:06:07.542Z,4.15
2023-04-22T20:08:36.416Z,4.20
2023-04-22T20:11:04.747Z,4.18
2023-04-22T20:13:33.995Z,4.22
2023-04-22T20:16:03.924Z,4.82
2023-04-22T20:18:33.055Z,3.90
2023-04-22T20:21:02.018Z,4.35
2023-04-22T20:23:32.982Z,3.90
2023-04-22T20:26:02.799Z,4.18
2023-04-22T20:28:44.338Z,4.78
2023-04-22T20:31:16.587Z,5.87
2023-04-22T20:33:44.886Z,5.85
2023-04-22T20:36:15.772Z,4.55
2023-04-22T20:38:48.852Z,4.87
2023-04-22T20:41:20.208Z,4.55
2023-04-22T20:43:48.377Z,4.68
2023-04-22T20:46:18.152Z,4.72
2023-04-22T20:48:47.727Z,5.03
2023-04-22T20:51:16.923Z,4.45
2023-04-22T20:53:45.372Z,4.20
2023-04-22T20:56:14.175Z,4.32
2023-04-22T20:58:42.153Z,4.30
2023-04-22T21:01:10.391Z,4.60
2023-04-22T21:03:41.135Z,5.07
2023-04-22T21:06:09.981Z,5.00
2023-04-22T21:08:40.245Z,4.22
2023-04-22T21:11:08.778Z,5.25
2023-04-22T21:13:37.352Z,4.85
2023-04-22T21:16:09.746Z,4.60
2023-04-22T21:18:44.352Z,4.30
2023-04-22T21:21:16.161Z,3.55
2023-04-22T21:23:45.028Z,4.70
2023-04-22T21:26:15.119Z,4.28
2023-04-22T21:28:44.455Z,4.57
2023-04-22T21:31:13.423Z,4.72
2023-04-22T21:33:43.097Z,3.85
2023-04-22T21:36:11.388Z,4.12
2023-04-22T21:38:39.377Z,3.80
2023-04-22T21:41:08.332Z,4.25
2023-04-22T21:43:36.386Z,3.97
2023-04-22T21:46:04.483Z,3.92
2023-04-22T21:48:32.819Z,4.03
2023-04-22T21:51:02.249Z,3.42
2023-04-22T21:53:30.330Z,2.95
2023-04-22T21:55:58.961Z,3.55
2023-04-22T21:58:27.125Z,3.47
2023-04-22T22:00:56.009Z,3.97
2023-04-22T22:03:24.607Z,3.42
2023-04-22T22:05:52.898Z,3.47
2023-04-22T22:08:22.433Z,3.50
2023-04-22T22:10:50.882Z,3.20
2023-04-22T22:13:18.966Z,3.95
2023-04-22T22:15:47.306Z,3.42
2023-04-22T22:18:15.709Z,3.50
2023-04-22T22:20:44.599Z,3.60
2023-04-22T22:23:12.670Z,3.22
2023-04-22T22:25:42.394Z,3.22
2023-04-22T22:28:11.120Z,2.90
2023-04-22T22:30:39.253Z,2.87
2023-04-22T22:33:07.780Z,3.33
2023-04-22T22:35:36.130Z,3.37
2023-04-22T22:38:04.212Z,2.87
2023-04-22T22:40:32.501Z,2.90
2023-04-22T22:43:02.044Z,3.05
2023-04-22T22:45:30.264Z,3.08
2023-04-22T22:47:58.720Z,3.53
2023-04-22T22:50:27.279Z,3.58
2023-04-22T22:52:55.516Z,3.65
2023-04-22T22:55:25.221Z,3.33
2023-04-22T22:57:53.382Z,2.92
2023-04-22T23:00:22.984Z,3.05
2023-04-22T23:02:51.490Z,3.08
2023-04-22T23:05:19.810Z,2.87
2023-04-22T23:07:47.883Z,3.03
2023-04-22T23:10:16.272Z,3.28
2023-04-22T23:12:44.443Z,3.15
2023-04-22T23:15:12.736Z,2.85
2023-04-22T23:17:42.583Z,3.03
2023-04-22T23:20:12.109Z,2.47
2023-04-22T23:22:41.089Z,2.90
2023-04-22T23:25:10.478Z,2.78
2023-04-22T23:27:38.928Z,2.47
2023-04-22T23:30:08.738Z,2.22
2023-04-22T23:32:37.022Z,2.95
2023-04-22T23:35:08.848Z,2.87
2023-04-22T23:37:38.714Z,2.62
2023-04-22T23:40:08.226Z,3.15
2023-04-22T23:42:36.427Z,2.60
2023-04-22T23:45:04.816Z,3.05
2023-04-22T23:47:33.326Z,2.70
2023-04-22T23:50:01.678Z,2.30
2023-04-22T23:52:31.016Z,2.80
2023-04-22T23:54:59.580Z,2.97
2023-04-22T23:57:28.676Z,2.85
2023-04-22T23:59:57.257Z,3.25
